Time;durP1;ratioP1;P1;durP2;ratioP2;P2;SDS_P1;SDS_P2;PMS_P1;PMS_P2;Temp;Humidity;BMP_temperature;BMP_pressure;BME280_temperature;BME280_humidity;BME280_pressure;Samples;Min_cycle;Max_cycle;Signal;HPM_P1;HPM_P2
2021/10/02 00:41:57;;;;;;;1.25;0.80;;;23.50;51.30;;;;;;4988268;28;20120;-60
2021/10/02 00:44:43;;;;;;;1.30;0.80;;;23.50;51.30;;;;;;4986956;28;20030;-58
2021/10/02 00:47:11;;;;;;;1.92;0.80;;;23.50;51.30;;;;;;4987884;28;20379;-52
2021/10/02 00:49:38;;;;;;;0.90;0.70;;;23.50;51.30;;;;;;4987285;28;20022;-60
2021/10/02 00:52:07;;;;;;;1.73;0.80;;;23.50;51.30;;;;;;4983459;28;20034;-58
2021/10/02 00:54:32;;;;;;;1.23;0.90;;;23.50;51.30;;;;;;4987745;28;20050;-61
2021/10/02 00:56:58;;;;;;;1.48;0.80;;;23.50;51.30;;;;;;4987791;28;20023;-60
2021/10/02 00:59:28;;;;;;;1.67;0.90;;;23.40;51.30;;;;;;4988280;28;20044;-58
2021/10/02 01:02:16;;;;;;;0.98;0.80;;;23.40;51.30;;;;;;4983080;28;20473;-60
2021/10/02 01:04:56;;;;;;;1.00;0.75;;;23.40;51.30;;;;;;4980631;28;20390;-60
2021/10/02 01:07:43;;;;;;;1.70;0.85;;;23.40;51.30;;;;;;4984758;28;20456;-60
2021/10/02 01:10:12;;;;;;;1.63;0.90;;;23.40;51.30;;;;;;4985362;28;20027;-61
2021/10/02 01:12:37;;;;;;;1.65;1.00;;;23.40;51.30;;;;;;4978196;28;20421;-59
2021/10/02 01:15:08;;;;;;;1.25;0.90;;;23.40;51.30;;;;;;4988705;28;20063;-51
2021/10/02 01:17:40;;;;;;;1.70;0.85;;;23.40;51.30;;;;;;4987163;28;20034;-61
2021/10/02 01:20:17;;;;;;;1.23;0.75;;;23.40;51.30;;;;;;4988520;28;20031;-55
2021/10/02 01:22:51;;;;;;;1.75;0.80;;;23.40;51.30;;;;;;4981341;28;20026;-61
2021/10/02 01:26:02;;;;;;;1.45;0.80;;;23.30;51.30;;;;;;4979615;28;20022;-60
2021/10/02 01:28:30;;;;;;;1.48;0.90;;;23.30;51.30;;;;;;4980311;28;20069;-60
2021/10/02 01:31:03;;;;;;;1.73;0.90;;;23.30;51.30;;;;;;4991276;28;20117;-57
2021/10/02 01:47:21;;;;;;;0.80;0.60;;;23.20;51.30;;;;;;4990823;28;20410;-60
2021/10/02 01:49:51;;;;;;;1.70;0.90;;;23.20;51.30;;;;;;4990453;28;20026;-58
2021/10/02 01:52:21;;;;;;;1.00;0.80;;;23.30;51.90;;;;;;4985492;28;20114;-55
2021/10/02 01:54:48;;;;;;;0.90;0.70;;;23.30;51.30;;;;;;4990124;28;20387;-58
2021/10/02 01:57:15;;;;;;;1.25;0.80;;;23.20;51.30;;;;;;4990323;28;20546;-58
2021/10/02 01:59:42;;;;;;;1.58;0.90;;;23.20;51.40;;;;;;4991427;28;20130;-57
2021/10/02 02:02:09;;;;;;;1.15;0.80;;;23.20;51.40;;;;;;4987099;28;20045;-60
2021/10/02 02:04:38;;;;;;;1.02;0.80;;;23.20;51.40;;;;;;4990342;28;20262;-58
2021/10/02 02:07:04;;;;;;;1.02;0.80;;;23.20;51.40;;;;;;4987946;28;20023;-55
2021/10/02 02:09:38;;;;;;;1.20;0.75;;;23.20;51.40;;;;;;4990311;28;20375;-60
2021/10/02 02:12:10;;;;;;;1.20;0.70;;;23.10;51.40;;;;;;4988002;28;20026;-61
2021/10/02 02:14:38;;;;;;;1.30;0.75;;;23.10;51.40;;;;;;4989872;28;20030;-52
2021/10/02 02:17:06;;;;;;;1.10;0.75;;;23.10;51.40;;;;;;4990124;28;20022;-59
2021/10/02 02:19:33;;;;;;;1.17;0.80;;;23.10;51.30;;;;;;4990228;28;20751;-59
2021/10/02 02:21:59;;;;;;;1.33;0.77;;;23.10;51.40;;;;;;4982161;28;20889;-57
2021/10/02 02:24:26;;;;;;;0.88;0.63;;;23.10;51.40;;;;;;4989277;28;20049;-61
2021/10/02 02:26:52;;;;;;;1.63;1.05;;;23.10;51.40;;;;;;4990169;28;20033;-61
2021/10/02 02:29:18;;;;;;;1.25;0.80;;;23.10;51.40;;;;;;4988575;28;20022;-61
2021/10/02 02:31:44;;;;;;;0.90;0.60;;;23.10;51.40;;;;;;4989038;28;20118;-61
2021/10/02 02:34:11;;;;;;;0.90;0.70;;;23.10;51.50;;;;;;4990139;28;20126;-59
2021/10/02 02:36:36;;;;;;;1.15;0.70;;;23.10;51.50;;;;;;4987647;28;20053;-60
2021/10/02 02:39:02;;;;;;;2.72;0.82;;;23.00;51.50;;;;;;4987883;28;21870;-58
2021/10/02 02:41:28;;;;;;;1.25;0.77;;;23.00;51.50;;;;;;4990188;28;20141;-58
2021/10/02 02:43:54;;;;;;;1.33;0.90;;;23.00;51.50;;;;;;4989013;28;20494;-57
2021/10/02 02:46:26;;;;;;;1.35;0.80;;;23.00;51.50;;;;;;4986083;28;20049;-58
2021/10/02 02:48:57;;;;;;;2.00;0.80;;;23.00;51.50;;;;;;4987776;28;20030;-47
2021/10/02 02:51:35;;;;;;;1.83;0.90;;;23.00;51.50;;;;;;4975641;28;20046;-56
2021/10/02 02:54:25;;;;;;;0.80;0.70;;;23.00;51.50;;;;;;4973307;28;20113;-57
2021/10/02 02:56:52;;;;;;;1.30;0.77;;;23.00;51.50;;;;;;4985875;28;20026;-58
2021/10/02 02:59:24;;;;;;;1.20;0.80;;;23.00;51.50;;;;;;4989676;28;20398;-56
2021/10/02 03:01:52;;;;;;;1.48;0.90;;;23.00;51.50;;;;;;4983653;28;20054;-56
2021/10/02 03:04:20;;;;;;;1.30;0.80;;;22.90;51.40;;;;;;4980293;28;20109;-56
2021/10/02 03:06:51;;;;;;;1.38;0.88;;;23.00;51.50;;;;;;4987342;28;20069;-61
2021/10/02 03:09:18;;;;;;;1.27;0.80;;;23.00;51.50;;;;;;4988240;28;20072;-61
2021/10/02 03:11:46;;;;;;;1.35;0.80;;;23.00;51.50;;;;;;4988833;28;20034;-60
2021/10/02 03:14:12;;;;;;;1.48;0.80;;;22.90;51.50;;;;;;4989321;28;20041;-58
2021/10/02 03:16:38;;;;;;;1.35;0.80;;;22.90;51.50;;;;;;4989010;28;20034;-54
2021/10/02 03:19:06;;;;;;;1.52;0.70;;;22.90;51.50;;;;;;4989715;28;20030;-58
2021/10/02 03:21:34;;;;;;;1.33;0.80;;;22.90;51.50;;;;;;4985032;28;20030;-59
2021/10/02 03:24:02;;;;;;;0.88;0.63;;;22.90;51.50;;;;;;4988311;28;20030;-57
2021/10/02 03:26:29;;;;;;;1.07;0.80;;;22.90;51.50;;;;;;4988737;28;20036;-60
2021/10/02 03:28:55;;;;;;;1.25;0.70;;;22.80;51.50;;;;;;4983975;28;20153;-58
2021/10/02 03:31:22;;;;;;;1.38;0.80;;;22.90;51.60;;;;;;4986639;28;20042;-60
2021/10/02 03:33:50;;;;;;;0.93;0.70;;;22.80;52.00;;;;;;4989305;28;20034;-60
2021/10/02 03:36:16;;;;;;;0.82;0.70;;;22.80;51.50;;;;;;4988172;28;20542;-52
2021/10/02 03:38:45;;;;;;;1.05;0.70;;;22.80;51.50;;;;;;4986982;28;20046;-53
2021/10/02 03:41:11;;;;;;;0.98;0.80;;;22.80;51.50;;;;;;4986678;28;20030;-51
2021/10/02 03:43:37;;;;;;;1.23;0.90;;;22.80;51.40;;;;;;4989168;28;20030;-58
2021/10/02 03:46:04;;;;;;;1.05;0.70;;;22.80;51.40;;;;;;4990002;28;20031;-61
2021/10/02 03:48:30;;;;;;;1.00;0.80;;;22.80;51.40;;;;;;4989257;28;20518;-61
2021/10/02 03:50:59;;;;;;;1.13;0.70;;;22.80;51.50;;;;;;4988233;28;20117;-61
2021/10/02 03:53:27;;;;;;;1.58;0.90;;;22.80;51.50;;;;;;4982242;28;20105;-60
2021/10/02 03:55:54;;;;;;;0.93;0.70;;;22.80;51.50;;;;;;4988655;28;20038;-59
2021/10/02 03:58:20;;;;;;;1.27;0.80;;;22.80;51.50;;;;;;4988346;28;20109;-54
2021/10/02 04:00:45;;;;;;;0.80;0.70;;;22.80;51.50;;;;;;4984707;28;20130;-58
2021/10/02 04:03:11;;;;;;;0.93;0.80;;;22.80;51.50;;;;;;4979447;28;20454;-60
2021/10/02 04:05:36;;;;;;;1.40;0.80;;;22.80;51.50;;;;;;4988069;28;20022;-58
2021/10/02 04:08:02;;;;;;;1.50;0.90;;;22.80;51.50;;;;;;4986123;28;20067;-59
2021/10/02 04:10:28;;;;;;;1.10;0.80;;;22.70;51.50;;;;;;4986505;28;20022;-60
2021/10/02 04:12:53;;;;;;;0.63;0.63;;;22.70;51.50;;;;;;4989051;28;20030;-55
2021/10/02 04:15:19;;;;;;;1.38;0.90;;;22.70;51.50;;;;;;4988547;28;20038;-60
2021/10/02 04:17:45;;;;;;;0.90;0.70;;;22.70;51.50;;;;;;4987584;28;20125;-61
2021/10/02 04:20:11;;;;;;;1.20;0.80;;;22.70;51.50;;;;;;4988110;28;20362;-60
2021/10/02 04:22:36;;;;;;;1.10;0.70;;;22.70;51.50;;;;;;4983282;28;20634;-59
2021/10/02 04:25:03;;;;;;;1.35;0.90;;;22.70;51.50;;;;;;4990004;28;20081;-54
2021/10/02 04:27:28;;;;;;;1.75;0.90;;;22.70;51.50;;;;;;4985938;28;20106;-57
2021/10/02 04:29:54;;;;;;;1.10;0.80;;;22.70;51.50;;;;;;4983914;28;20126;-59
2021/10/02 04:32:20;;;;;;;0.98;0.70;;;22.70;51.50;;;;;;4986044;28;20046;-60
2021/10/02 04:34:45;;;;;;;1.75;0.85;;;22.70;51.50;;;;;;4988448;28;20046;-62
2021/10/02 04:37:11;;;;;;;0.93;0.73;;;22.70;51.50;;;;;;4982780;28;20030;-62
2021/10/02 04:39:37;;;;;;;0.90;0.80;;;22.70;51.50;;;;;;4984307;28;20137;-61
2021/10/02 04:42:04;;;;;;;1.48;0.90;;;22.70;51.50;;;;;;4978638;28;20069;-61
2021/10/02 04:44:29;;;;;;;1.20;0.80;;;22.70;51.50;;;;;;4985333;28;20073;-59
2021/10/02 04:46:55;;;;;;;1.05;0.75;;;22.60;51.50;;;;;;4986875;28;20038;-58
2021/10/02 04:49:21;;;;;;;1.23;0.70;;;22.60;51.50;;;;;;4985885;28;20027;-62
2021/10/02 04:51:46;;;;;;;1.25;0.80;;;22.60;51.60;;;;;;4983388;28;20034;-62
2021/10/02 04:54:12;;;;;;;1.33;0.90;;;22.60;51.60;;;;;;4994274;28;20109;-61
2021/10/02 04:56:38;;;;;;;1.20;0.88;;;22.60;51.50;;;;;;4985807;28;20026;-59
2021/10/02 04:59:04;;;;;;;0.70;0.70;;;22.60;51.60;;;;;;4988444;28;20049;-55
2021/10/02 05:01:29;;;;;;;1.65;0.80;;;22.60;51.60;;;;;;4983399;28;20511;-61
2021/10/02 05:03:56;;;;;;;1.05;0.80;;;22.60;51.60;;;;;;4989101;28;20042;-61
2021/10/02 05:06:21;;;;;;;0.65;0.60;;;22.60;51.60;;;;;;4989664;28;20072;-62
2021/10/02 05:08:48;;;;;;;1.20;0.90;;;22.60;51.60;;;;;;4990173;28;20034;-59
2021/10/02 05:11:14;;;;;;;1.10;0.73;;;22.60;51.60;;;;;;4984887;28;22475;-61
2021/10/02 05:13:40;;;;;;;1.55;0.90;;;22.60;51.60;;;;;;4987909;28;20379;-59
2021/10/02 05:16:05;;;;;;;1.17;0.80;;;22.60;51.60;;;;;;4991873;28;20034;-56
2021/10/02 05:18:31;;;;;;;0.90;0.70;;;22.60;51.60;;;;;;4990155;28;20703;-62
2021/10/02 05:20:57;;;;;;;1.67;0.77;;;22.60;51.60;;;;;;4990947;28;20120;-58
2021/10/02 05:23:23;;;;;;;1.17;0.80;;;22.60;51.60;;;;;;4994625;28;20105;-56
2021/10/02 05:25:49;;;;;;;0.90;0.70;;;22.60;51.60;;;;;;4990358;28;20027;-59
2021/10/02 05:28:14;;;;;;;1.00;0.80;;;22.60;51.70;;;;;;4990335;28;20111;-62
2021/10/02 05:30:40;;;;;;;1.45;0.70;;;22.50;51.60;;;;;;4990987;28;20034;-58
2021/10/02 05:33:06;;;;;;;1.10;0.80;;;22.50;51.60;;;;;;4986261;28;20030;-53
2021/10/02 05:35:32;;;;;;;1.02;0.70;;;22.50;51.60;;;;;;4975463;28;20041;-59
2021/10/02 05:37:59;;;;;;;1.67;0.90;;;22.50;51.70;;;;;;4986168;28;20113;-58
2021/10/02 05:40:25;;;;;;;1.63;0.90;;;22.50;51.60;;;;;;4981929;28;20505;-58
2021/10/02 05:42:50;;;;;;;1.50;0.90;;;22.50;51.60;;;;;;4988211;28;20034;-61
2021/10/02 05:45:16;;;;;;;0.80;0.60;;;22.50;51.60;;;;;;4988695;28;20045;-62
2021/10/02 05:47:42;;;;;;;0.98;0.75;;;22.50;51.70;;;;;;4988495;28;20041;-59
2021/10/02 05:50:08;;;;;;;1.67;0.88;;;22.50;51.70;;;;;;4990385;28;20165;-61
2021/10/02 05:52:33;;;;;;;0.85;0.70;;;22.50;52.20;;;;;;4987918;28;20026;-58
2021/10/02 05:54:59;;;;;;;1.20;0.70;;;22.50;51.70;;;;;;4990591;28;20486;-60
2021/10/02 05:57:25;;;;;;;0.95;0.70;;;22.40;51.70;;;;;;4990410;28;20751;-59
2021/10/02 05:59:50;;;;;;;1.80;0.80;;;22.40;51.60;;;;;;4988870;28;20042;-58
2021/10/02 06:02:16;;;;;;;1.73;0.80;;;22.40;51.60;;;;;;4983003;28;20030;-62
2021/10/02 06:04:42;;;;;;;0.90;0.75;;;22.40;51.60;;;;;;4990701;28;20375;-61
2021/10/02 06:07:08;;;;;;;1.23;0.77;;;22.40;51.60;;;;;;4983715;28;20481;-62
2021/10/02 06:09:34;;;;;;;1.70;0.95;;;22.40;51.60;;;;;;4984878;28;20034;-56
2021/10/02 06:11:59;;;;;;;1.30;0.80;;;22.40;51.60;;;;;;4985260;28;20034;-61
2021/10/02 06:14:26;;;;;;;1.50;0.80;;;22.40;51.50;;;;;;4990359;28;20034;-62
2021/10/02 06:16:51;;;;;;;1.00;0.80;;;22.40;51.50;;;;;;4990334;28;20054;-55
2021/10/02 06:19:17;;;;;;;0.90;0.70;;;22.40;51.50;;;;;;4980327;28;20474;-61
2021/10/02 06:21:44;;;;;;;1.08;0.77;;;22.40;51.50;;;;;;4987886;28;20097;-59
2021/10/02 06:24:10;;;;;;;1.50;0.90;;;22.40;51.50;;;;;;4985768;28;20029;-58
2021/10/02 06:26:37;;;;;;;1.92;0.80;;;22.40;51.50;;;;;;4989713;28;20168;-60
2021/10/02 06:29:05;;;;;;;1.23;0.90;;;22.40;51.40;;;;;;4984969;28;20034;-62
2021/10/02 06:31:31;;;;;;;1.05;0.80;;;22.40;51.40;;;;;;4988442;28;20120;-59
2021/10/02 06:33:56;;;;;;;1.30;0.90;;;22.40;51.40;;;;;;4990208;28;20072;-62
2021/10/02 06:36:22;;;;;;;1.27;0.80;;;22.40;51.40;;;;;;4983814;28;20105;-57
2021/10/02 06:38:48;;;;;;;1.58;0.90;;;22.40;51.40;;;;;;4979443;28;20164;-61
2021/10/02 06:41:13;;;;;;;1.48;0.90;;;22.40;51.40;;;;;;4983240;28;20080;-61
2021/10/02 06:43:39;;;;;;;1.52;0.85;;;22.40;51.40;;;;;;4985788;28;20042;-63
2021/10/02 06:46:05;;;;;;;0.90;0.73;;;22.40;51.40;;;;;;4985560;28;20026;-59
2021/10/02 06:48:31;;;;;;;1.23;0.90;;;22.30;51.30;;;;;;4986327;28;20058;-62
2021/10/02 06:50:56;;;;;;;1.20;0.98;;;22.40;51.40;;;;;;4987247;28;20447;-58
2021/10/02 06:53:22;;;;;;;1.30;0.80;;;22.40;51.40;;;;;;4987419;28;20042;-57
2021/10/02 06:55:48;;;;;;;2.15;0.80;;;22.30;51.40;;;;;;4983160;28;20034;-56
2021/10/02 06:58:13;;;;;;;1.38;0.85;;;22.30;51.40;;;;;;4980927;28;20625;-61
2021/10/02 07:00:39;;;;;;;1.60;0.98;;;22.30;51.40;;;;;;4985611;28;20043;-56
2021/10/02 07:03:05;;;;;;;1.23;0.82;;;22.30;51.40;;;;;;4987974;28;20045;-55
2021/10/02 07:05:31;;;;;;;1.98;0.90;;;22.30;51.40;;;;;;4985739;28;20032;-59
2021/10/02 07:07:57;;;;;;;1.20;0.80;;;22.30;52.00;;;;;;4984143;28;20117;-61
2021/10/02 07:10:23;;;;;;;1.83;0.90;;;22.30;51.40;;;;;;4987507;28;20101;-61
2021/10/02 07:12:50;;;;;;;1.98;1.00;;;22.30;51.70;;;;;;4986439;28;20019;-61
2021/10/02 07:15:16;;;;;;;1.05;0.80;;;22.30;51.50;;;;;;4986297;28;20528;-52
2021/10/02 07:17:42;;;;;;;1.10;0.80;;;22.30;52.00;;;;;;4988027;28;20137;-60
2021/10/02 07:20:09;;;;;;;1.15;0.80;;;22.30;51.50;;;;;;4988773;28;20102;-57
2021/10/02 07:22:38;;;;;;;1.20;0.82;;;22.20;51.50;;;;;;4981153;28;20573;-56
2021/10/02 07:25:05;;;;;;;2.00;0.90;;;22.30;51.60;;;;;;4987026;28;20102;-61
2021/10/02 07:27:31;;;;;;;1.10;0.80;;;22.30;51.60;;;;;;4986757;28;20027;-53
2021/10/02 07:29:56;;;;;;;1.30;0.80;;;22.30;51.60;;;;;;4988932;28;20022;-57
2021/10/02 07:32:23;;;;;;;1.83;0.90;;;22.20;51.60;;;;;;4986697;28;20128;-56
2021/10/02 07:34:50;;;;;;;1.80;0.95;;;22.30;51.60;;;;;;4984435;28;20114;-56
2021/10/02 07:37:16;;;;;;;1.73;0.90;;;22.30;51.60;;;;;;4976481;28;20502;-58
2021/10/02 07:39:41;;;;;;;3.03;0.90;;;22.20;51.60;;;;;;4985043;28;20415;-55
2021/10/02 07:42:09;;;;;;;1.08;0.73;;;22.20;51.60;;;;;;4985775;28;20038;-58
2021/10/02 07:44:36;;;;;;;1.75;0.80;;;22.20;51.60;;;;;;4987647;28;20109;-58
2021/10/02 07:47:02;;;;;;;1.55;0.82;;;22.20;51.70;;;;;;4978962;28;20030;-59
2021/10/02 07:49:33;;;;;;;1.27;0.90;;;22.20;51.70;;;;;;4986386;28;20033;-55
2021/10/02 07:51:59;;;;;;;1.75;0.90;;;22.20;51.70;;;;;;4984664;28;20426;-58
2021/10/02 07:54:26;;;;;;;0.95;0.80;;;22.20;51.70;;;;;;4987356;28;20038;-57
2021/10/02 07:56:51;;;;;;;1.35;0.90;;;22.20;51.70;;;;;;4984940;28;20459;-60
2021/10/02 07:59:17;;;;;;;1.00;0.70;;;22.20;51.70;;;;;;4981338;28;20030;-54
2021/10/02 08:01:44;;;;;;;1.10;0.80;;;22.20;51.70;;;;;;4986394;28;20034;-56
2021/10/02 08:04:10;;;;;;;1.95;0.80;;;22.20;51.70;;;;;;4979421;28;20026;-55
2021/10/02 08:06:37;;;;;;;1.02;0.68;;;22.20;51.70;;;;;;4981731;28;20037;-59
2021/10/02 08:09:05;;;;;;;1.00;0.80;;;22.20;51.70;;;;;;4983574;28;20173;-59
2021/10/02 08:11:31;;;;;;;1.40;0.90;;;22.20;51.70;;;;;;4975012;28;20375;-60
2021/10/02 08:13:57;;;;;;;0.95;0.70;;;22.20;51.70;;;;;;4987358;28;20045;-60
2021/10/02 08:16:28;;;;;;;3.15;0.93;;;22.20;51.70;;;;;;4981489;28;20065;-55
2021/10/02 08:19:00;;;;;;;0.85;0.70;;;22.20;51.70;;;;;;4977943;28;20042;-59
2021/10/02 08:21:27;;;;;;;1.38;0.88;;;22.20;51.70;;;;;;4975717;28;20056;-59
2021/10/02 08:23:53;;;;;;;1.30;0.90;;;22.20;51.70;;;;;;4978749;28;20065;-53
2021/10/02 08:26:20;;;;;;;1.48;0.85;;;22.20;51.70;;;;;;4977918;28;20027;-60
2021/10/02 08:28:48;;;;;;;1.15;0.80;;;22.20;51.70;;;;;;4977993;28;20115;-60
2021/10/02 08:31:16;;;;;;;1.17;0.90;;;22.20;51.80;;;;;;4972178;28;20081;-60
2021/10/02 08:33:42;;;;;;;2.20;1.00;;;22.20;51.80;;;;;;4972888;28;20039;-59
2021/10/02 08:36:08;;;;;;;1.08;0.77;;;22.20;51.80;;;;;;4974035;28;20525;-57
2021/10/02 08:38:36;;;;;;;1.00;0.82;;;22.20;51.80;;;;;;4973381;28;20037;-60
2021/10/02 08:41:03;;;;;;;1.50;0.80;;;22.20;51.80;;;;;;4981447;28;20030;-59
2021/10/02 08:43:31;;;;;;;1.08;0.82;;;22.20;51.80;;;;;;4984584;28;20057;-51
2021/10/02 08:45:57;;;;;;;1.10;0.77;;;22.10;51.70;;;;;;4983384;28;20026;-55
2021/10/02 08:48:23;;;;;;;1.60;0.95;;;22.10;51.80;;;;;;4981461;28;20402;-58
2021/10/02 08:50:50;;;;;;;1.95;0.90;;;22.10;51.80;;;;;;4981066;28;20437;-60
2021/10/02 08:53:16;;;;;;;0.95;0.80;;;22.10;51.70;;;;;;4976361;28;20704;-57
2021/10/02 08:55:43;;;;;;;1.42;0.90;;;22.10;51.80;;;;;;4979187;28;20547;-56
2021/10/02 08:58:09;;;;;;;1.38;0.85;;;22.10;51.80;;;;;;4978291;28;20031;-58
2021/10/02 09:00:38;;;;;;;1.52;0.95;;;22.10;51.80;;;;;;4979994;28;20559;-58
2021/10/02 09:03:04;;;;;;;1.48;0.80;;;22.10;51.70;;;;;;4981771;28;20582;-57
2021/10/02 09:05:30;;;;;;;1.27;0.90;;;22.10;51.80;;;;;;4981229;28;20813;-58
2021/10/02 09:07:58;;;;;;;1.40;0.77;;;22.10;51.80;;;;;;4977073;28;20050;-60
2021/10/02 09:10:25;;;;;;;2.15;0.85;;;22.10;51.80;;;;;;4979286;28;20041;-56
2021/10/02 09:12:51;;;;;;;1.38;0.77;;;22.10;51.90;;;;;;4983825;28;20133;-58
2021/10/02 09:15:18;;;;;;;1.80;1.00;;;22.10;51.90;;;;;;4983927;28;20558;-60
2021/10/02 09:17:44;;;;;;;1.60;0.80;;;22.10;51.90;;;;;;4985890;28;20065;-56
2021/10/02 09:20:13;;;;;;;1.05;0.80;;;22.10;52.00;;;;;;4988490;28;20093;-59
2021/10/02 09:22:38;;;;;;;1.38;0.70;;;22.10;52.00;;;;;;4984706;28;20026;-57
2021/10/02 09:25:09;;;;;;;1.33;0.80;;;22.10;52.00;;;;;;4978771;28;20121;-61
2021/10/02 09:27:35;;;;;;;0.85;0.77;;;22.10;52.00;;;;;;4974196;28;20027;-57
2021/10/02 09:30:08;;;;;;;1.13;0.80;;;22.10;52.10;;;;;;4988650;28;20125;-58
2021/10/02 09:32:37;;;;;;;1.55;0.80;;;22.10;52.20;;;;;;4981247;28;20042;-58
2021/10/02 09:35:15;;;;;;;1.48;0.70;;;22.10;52.20;;;;;;4983717;28;20058;-58
2021/10/02 09:37:43;;;;;;;1.58;0.90;;;22.10;52.30;;;;;;4977128;28;20057;-59
2021/10/02 09:40:18;;;;;;;2.53;0.80;;;22.10;52.20;;;;;;4980033;28;20041;-60
2021/10/02 09:43:04;;;;;;;1.98;0.95;;;22.10;52.30;;;;;;4985833;28;20037;-59
2021/10/02 09:45:36;;;;;;;2.85;0.90;;;22.10;52.30;;;;;;4981780;28;20034;-60
2021/10/02 09:48:05;;;;;;;1.70;0.90;;;22.10;52.30;;;;;;4985080;28;20030;-56
2021/10/02 09:50:37;;;;;;;1.40;1.00;;;22.10;52.30;;;;;;4977604;28;20027;-60
2021/10/02 09:53:06;;;;;;;1.50;0.88;;;22.10;52.30;;;;;;4974742;28;20458;-59
2021/10/02 09:55:44;;;;;;;1.85;0.95;;;22.10;52.30;;;;;;4980157;28;20037;-60
2021/10/02 09:58:11;;;;;;;1.42;0.90;;;22.10;52.30;;;;;;4980073;28;20481;-57
2021/10/02 10:00:39;;;;;;;1.08;0.80;;;22.10;52.80;;;;;;4978549;28;20034;-60
2021/10/02 10:03:11;;;;;;;1.45;0.73;;;22.10;52.40;;;;;;4980078;28;20354;-59
2021/10/02 10:05:42;;;;;;;0.93;0.70;;;22.10;52.30;;;;;;4978957;28;20026;-59
2021/10/02 10:08:11;;;;;;;1.23;0.80;;;22.10;52.30;;;;;;4976536;28;20062;-56
2021/10/02 10:10:39;;;;;;;1.45;0.80;;;22.10;52.40;;;;;;4984766;28;20162;-58
2021/10/02 10:13:12;;;;;;;1.50;0.80;;;22.10;52.30;;;;;;4979511;28;20668;-59
2021/10/02 10:15:44;;;;;;;1.48;0.90;;;22.10;52.30;;;;;;4981732;28;20456;-54
2021/10/02 10:18:28;;;;;;;2.25;0.80;;;22.10;52.30;;;;;;4979912;28;20121;-59
2021/10/02 10:20:57;;;;;;;1.05;0.77;;;22.10;52.30;;;;;;4981815;28;20041;-56
2021/10/02 10:23:42;;;;;;;1.37;0.80;;;22.10;52.30;;;;;;4979901;28;20022;-60
2021/10/02 10:26:11;;;;;;;2.55;0.80;;;22.10;52.30;;;;;;4984912;28;20041;-60
2021/10/02 10:28:43;;;;;;;3.00;0.83;;;22.10;52.40;;;;;;4980817;28;20133;-59
2021/10/02 10:31:15;;;;;;;2.30;0.90;;;22.20;52.50;;;;;;4982269;28;20290;-62
2021/10/02 10:33:47;;;;;;;1.27;0.85;;;22.20;52.50;;;;;;4981782;28;20109;-60
2021/10/02 10:36:14;;;;;;;2.03;1.00;;;22.20;52.40;;;;;;4980256;28;20037;-57
2021/10/02 10:38:43;;;;;;;1.27;0.80;;;22.20;52.50;;;;;;4979126;28;20414;-54
2021/10/02 10:41:10;;;;;;;1.23;0.82;;;22.20;52.50;;;;;;4982522;28;20605;-58
2021/10/02 10:43:37;;;;;;;1.52;1.00;;;22.20;52.50;;;;;;4984366;28;20038;-61
2021/10/02 10:46:24;;;;;;;2.78;0.90;;;22.20;52.50;;;;;;4982533;28;20034;-61
2021/10/02 10:48:50;;;;;;;1.73;0.90;;;22.20;52.50;;;;;;4981408;28;20537;-60
2021/10/02 10:51:19;;;;;;;2.55;0.90;;;22.20;52.50;;;;;;4976263;28;20145;-61
2021/10/02 10:53:48;;;;;;;3.33;0.93;;;22.20;52.50;;;;;;4980220;28;20034;-61
2021/10/02 10:56:16;;;;;;;2.35;0.90;;;22.20;53.00;;;;;;4983217;28;20390;-58
2021/10/02 10:58:43;;;;;;;1.67;0.87;;;22.20;52.50;;;;;;4980622;28;20022;-61
2021/10/02 11:01:11;;;;;;;2.10;0.80;;;22.20;52.50;;;;;;4975336;28;20063;-56
2021/10/02 11:03:46;;;;;;;1.65;1.00;;;22.20;52.60;;;;;;4987192;28;20041;-56
2021/10/02 12:20:44;;;;;;;1.73;1.10;;;21.70;53.80;;;;;;4986281;28;20521;-60
2021/10/02 12:23:12;;;;;;;1.92;1.02;;;21.70;54.10;;;;;;5008291;28;20079;-59
2021/10/02 12:25:39;;;;;;;3.25;1.33;;;21.70;54.30;;;;;;5020626;28;20022;-59
2021/10/02 12:28:05;;;;;;;1.73;1.10;;;21.70;54.40;;;;;;5020489;28;20030;-61
2021/10/02 12:30:31;;;;;;;1.77;1.10;;;21.80;54.40;;;;;;5020186;28;20410;-60
2021/10/02 12:32:59;;;;;;;3.38;1.05;;;21.80;54.40;;;;;;5003628;28;20034;-62
2021/10/02 12:35:25;;;;;;;2.50;1.10;;;21.80;54.40;;;;;;5003016;28;20112;-61
2021/10/02 12:37:56;;;;;;;3.25;1.40;;;21.90;54.40;;;;;;5003603;28;20777;-53
2021/10/02 12:40:22;;;;;;;2.88;1.30;;;21.90;54.30;;;;;;5002636;28;20034;-57
2021/10/02 12:42:53;;;;;;;2.63;1.30;;;22.00;54.30;;;;;;4999024;28;20505;-54
2021/10/02 12:45:23;;;;;;;2.75;1.27;;;22.00;54.20;;;;;;5001612;28;20034;-57
2021/10/02 12:47:51;;;;;;;3.35;1.30;;;22.00;54.70;;;;;;5009189;28;20741;-56
2021/10/02 12:50:25;;;;;;;2.67;1.48;;;22.00;54.10;;;;;;5002875;28;20046;-61
2021/10/02 12:52:56;;;;;;;3.03;1.45;;;22.10;54.10;;;;;;4984082;28;20034;-61
2021/10/02 12:55:22;;;;;;;3.90;1.50;;;22.10;54.00;;;;;;4974932;28;20063;-61
2021/10/02 12:57:48;;;;;;;2.22;1.30;;;22.10;54.00;;;;;;4988019;28;20738;-59
2021/10/02 13:00:19;;;;;;;2.42;1.25;;;22.10;54.00;;;;;;4983738;28;20039;-58
2021/10/02 13:02:56;;;;;;;2.92;1.25;;;22.10;54.10;;;;;;4981858;28;20031;-61
2021/10/02 13:05:25;;;;;;;3.17;1.38;;;22.20;54.10;;;;;;4979442;28;20056;-55
2021/10/02 13:07:57;;;;;;;3.30;1.50;;;22.10;54.00;;;;;;4983574;28;20756;-60
2021/10/02 13:10:35;;;;;;;2.55;1.40;;;22.20;54.00;;;;;;4981268;28;20061;-58
2021/10/02 13:13:03;;;;;;;3.63;1.50;;;22.20;54.00;;;;;;4996492;28;20041;-61
2021/10/02 13:15:38;;;;;;;2.28;1.20;;;22.20;53.90;;;;;;4978875;28;20109;-58
2021/10/02 13:18:11;;;;;;;3.00;1.30;;;22.20;53.80;;;;;;4982080;28;20477;-59
2021/10/02 13:20:39;;;;;;;2.85;1.48;;;22.20;53.80;;;;;;4975664;28;20035;-60
2021/10/02 13:23:15;;;;;;;4.53;1.30;;;22.20;53.90;;;;;;4970673;28;20058;-57
2021/10/02 13:25:46;;;;;;;3.47;1.50;;;22.20;53.80;;;;;;4979085;28;20442;-56
2021/10/02 13:28:29;;;;;;;3.38;1.55;;;22.20;53.80;;;;;;4978161;28;20030;-58
2021/10/02 13:30:57;;;;;;;3.42;1.23;;;22.20;53.80;;;;;;4969454;28;20062;-61
2021/10/02 13:33:23;;;;;;;2.92;1.25;;;22.20;53.70;;;;;;4969525;28;20206;-50
2021/10/02 13:35:54;;;;;;;3.72;1.50;;;22.20;53.60;;;;;;4960076;28;20039;-55
2021/10/02 13:38:30;;;;;;;2.42;1.38;;;22.30;53.60;;;;;;4968909;28;20130;-52
2021/10/02 13:40:58;;;;;;;3.05;1.50;;;22.30;53.60;;;;;;4972749;28;20422;-61
2021/10/02 13:43:24;;;;;;;2.92;1.50;;;22.30;53.50;;;;;;4970811;28;20489;-61
2021/10/02 13:45:52;;;;;;;3.03;1.33;;;22.30;53.40;;;;;;4971743;28;20070;-52
2021/10/02 13:48:30;;;;;;;2.20;1.25;;;22.30;53.40;;;;;;4969122;28;20067;-57
2021/10/02 13:50:57;;;;;;;3.60;1.30;;;22.30;53.40;;;;;;4949461;28;20041;-57
2021/10/02 13:53:27;;;;;;;2.13;1.15;;;22.30;53.40;;;;;;4953960;28;20122;-52
2021/10/02 13:55:53;;;;;;;3.03;1.25;;;22.30;53.40;;;;;;4973677;28;20425;-57
2021/10/02 13:58:19;;;;;;;1.92;1.13;;;22.30;53.40;;;;;;4970214;28;20031;-55
2021/10/02 14:00:45;;;;;;;2.80;1.33;;;22.30;53.40;;;;;;4954470;28;20039;-60
2021/10/02 14:03:11;;;;;;;2.50;1.30;;;22.40;53.40;;;;;;4962064;28;20386;-60
2021/10/02 14:05:39;;;;;;;3.42;1.30;;;22.40;53.40;;;;;;4958280;28;20138;-61
2021/10/02 14:08:05;;;;;;;2.22;1.20;;;22.40;53.30;;;;;;4969767;28;20045;-61
2021/10/02 14:10:31;;;;;;;4.90;1.33;;;22.40;53.40;;;;;;4966096;28;20126;-60
2021/10/02 14:12:58;;;;;;;3.80;1.40;;;22.40;53.40;;;;;;4966641;28;20117;-60
2021/10/02 14:15:24;;;;;;;2.10;1.35;;;22.40;53.50;;;;;;4963049;28;20042;-59
2021/10/02 14:17:49;;;;;;;1.98;1.30;;;22.40;53.40;;;;;;4969131;28;20031;-59
2021/10/02 14:20:16;;;;;;;2.08;1.40;;;22.40;53.50;;;;;;4962567;28;20074;-58
2021/10/02 14:22:43;;;;;;;3.58;1.30;;;22.40;53.50;;;;;;4969931;28;20046;-59
2021/10/02 14:25:10;;;;;;;2.50;1.50;;;22.40;53.40;;;;;;4954355;28;20016;-51
2021/10/02 14:27:36;;;;;;;2.08;1.30;;;22.40;53.50;;;;;;4962325;28;20034;-59
2021/10/02 14:30:05;;;;;;;2.90;1.60;;;22.50;53.50;;;;;;4959320;28;20169;-54
2021/10/02 14:32:30;;;;;;;3.40;1.50;;;22.50;53.60;;;;;;4962643;28;20462;-58
2021/10/02 14:34:56;;;;;;;2.85;1.38;;;22.50;53.50;;;;;;4976434;28;20041;-56
2021/10/02 14:37:22;;;;;;;2.28;1.33;;;22.50;53.50;;;;;;4973022;28;20042;-59
2021/10/02 14:39:50;;;;;;;4.25;1.80;;;22.50;53.40;;;;;;4966248;28;20031;-53
2021/10/02 14:42:18;;;;;;;2.97;1.40;;;22.60;53.40;;;;;;4972160;28;20031;-52
2021/10/02 14:44:44;;;;;;;3.65;1.30;;;22.50;53.30;;;;;;4980219;28;20069;-55
2021/10/02 14:47:10;;;;;;;2.67;1.45;;;22.60;53.30;;;;;;4965766;28;20398;-50
2021/10/02 14:49:35;;;;;;;2.88;1.50;;;22.60;53.30;;;;;;4959961;28;20141;-53
2021/10/02 14:52:01;;;;;;;2.75;1.70;;;22.60;53.30;;;;;;4968710;28;20506;-57
2021/10/02 14:54:29;;;;;;;3.30;1.42;;;22.60;53.20;;;;;;4959721;28;20337;-60
2021/10/02 14:57:00;;;;;;;3.35;1.88;;;22.60;53.10;;;;;;4977795;28;20104;-55
2021/10/02 14:59:28;;;;;;;3.53;1.80;;;22.60;53.00;;;;;;4964170;28;20041;-54
2021/10/02 15:01:53;;;;;;;2.75;1.60;;;22.60;53.00;;;;;;4965615;28;20058;-55